sensor_id;sensor_type;location;lat;lon;timestamp;temperature;humidity
3727;DHT22;1879;45.876;12.300;2023-08-30T00:01:14;20.10;99.90
3727;DHT22;1879;45.876;12.300;2023-08-30T00:03:41;20.10;99.90
3727;DHT22;1879;45.876;12.300;2023-08-30T00:06:08;20.20;99.90
3727;DHT22;1879;45.876;12.300;2023-08-30T00:08:35;20.20;99.90
3727;DHT22;1879;45.876;12.300;2023-08-30T00:11:02;20.10;99.90
3727;DHT22;1879;45.876;12.300;2023-08-30T00:13:31;20.10;99.90
3727;DHT22;1879;45.876;12.300;2023-08-30T00:15:59;20.10;99.90
3727;DHT22;1879;45.876;12.300;2023-08-30T00:18:26;20.00;99.90
3727;DHT22;1879;45.876;12.300;2023-08-30T00:20:53;19.90;99.90
3727;DHT22;1879;45.876;12.300;2023-08-30T00:23:22;19.90;99.90
3727;DHT22;1879;45.876;12.300;2023-08-30T00:25:49;19.80;99.90
3727;DHT22;1879;45.876;12.300;2023-08-30T00:28:16;19.70;99.90
3727;DHT22;1879;45.876;12.300;2023-08-30T00:30:44;19.70;99.90
3727;DHT22;1879;45.876;12.300;2023-08-30T00:33:11;19.70;99.90
3727;DHT22;1879;45.876;12.300;2023-08-30T00:35:38;19.70;99.90
3727;DHT22;1879;45.876;12.300;2023-08-30T00:38:05;19.70;99.90
3727;DHT22;1879;45.876;12.300;2023-08-30T00:40:38;19.70;99.90
3727;DHT22;1879;45.876;12.300;2023-08-30T00:43:06;19.60;99.90
3727;DHT22;1879;45.876;12.300;2023-08-30T00:45:33;19.60;99.90
3727;DHT22;1879;45.876;12.300;2023-08-30T00:48:03;19.60;99.90
3727;DHT22;1879;45.876;12.300;2023-08-30T00:50:30;19.60;99.90
3727;DHT22;1879;45.876;12.300;2023-08-30T00:52:57;19.60;99.90
3727;DHT22;1879;45.876;12.300;2023-08-30T00:55:24;19.60;99.90
3727;DHT22;1879;45.876;12.300;2023-08-30T00:57:51;19.60;99.90
3727;DHT22;1879;45.876;12.300;2023-08-30T01:00:18;19.70;99.90
3727;DHT22;1879;45.876;12.300;2023-08-30T01:02:45;19.60;99.90
3727;DHT22;1879;45.876;12.300;2023-08-30T01:05:13;19.60;99.90
3727;DHT22;1879;45.876;12.300;2023-08-30T01:07:41;19.60;99.90
3727;DHT22;1879;45.876;12.300;2023-08-30T01:10:08;19.50;99.90
3727;DHT22;1879;45.876;12.300;2023-08-30T01:12:40;19.60;99.90
3727;DHT22;1879;45.876;12.300;2023-08-30T01:15:12;19.60;99.90
3727;DHT22;1879;45.876;12.300;2023-08-30T01:17:41;19.60;99.90
3727;DHT22;1879;45.876;12.300;2023-08-30T01:20:09;19.60;99.90
3727;DHT22;1879;45.876;12.300;2023-08-30T01:22:47;19.60;99.90
3727;DHT22;1879;45.876;12.300;2023-08-30T01:25:24;19.50;99.90
3727;DHT22;1879;45.876;12.300;2023-08-30T01:27:56;19.60;99.90
3727;DHT22;1879;45.876;12.300;2023-08-30T01:30:24;19.60;99.90
3727;DHT22;1879;45.876;12.300;2023-08-30T01:32:53;19.70;99.90
3727;DHT22;1879;45.876;12.300;2023-08-30T01:35:23;19.70;99.90
3727;DHT22;1879;45.876;12.300;2023-08-30T01:37:51;19.70;99.90
3727;DHT22;1879;45.876;12.300;2023-08-30T01:40:20;19.70;99.90
3727;DHT22;1879;45.876;12.300;2023-08-30T01:42:48;19.70;99.90
3727;DHT22;1879;45.876;12.300;2023-08-30T01:45:17;19.80;99.90
3727;DHT22;1879;45.876;12.300;2023-08-30T01:47:46;19.70;99.90
3727;DHT22;1879;45.876;12.300;2023-08-30T01:50:15;19.70;99.90
3727;DHT22;1879;45.876;12.300;2023-08-30T01:52:43;19.70;99.90
3727;DHT22;1879;45.876;12.300;2023-08-30T01:55:11;19.70;99.90
3727;DHT22;1879;45.876;12.300;2023-08-30T01:57:40;19.70;99.90
3727;DHT22;1879;45.876;12.300;2023-08-30T02:00:08;19.60;99.90
3727;DHT22;1879;45.876;12.300;2023-08-30T02:02:36;19.70;99.90
3727;DHT22;1879;45.876;12.300;2023-08-30T02:05:04;19.60;99.90
3727;DHT22;1879;45.876;12.300;2023-08-30T02:07:35;19.60;99.90
3727;DHT22;1879;45.876;12.300;2023-08-30T02:10:08;19.60;99.90
3727;DHT22;1879;45.876;12.300;2023-08-30T02:12:41;19.70;99.90
3727;DHT22;1879;45.876;12.300;2023-08-30T02:15:10;19.70;99.90
3727;DHT22;1879;45.876;12.300;2023-08-30T02:17:40;19.70;99.90
3727;DHT22;1879;45.876;12.300;2023-08-30T02:20:07;19.60;99.90
3727;DHT22;1879;45.876;12.300;2023-08-30T02:22:34;19.60;99.90
3727;DHT22;1879;45.876;12.300;2023-08-30T02:25:01;19.60;99.90
3727;DHT22;1879;45.876;12.300;2023-08-30T02:27:30;19.70;99.90
3727;DHT22;1879;45.876;12.300;2023-08-30T02:29:57;19.50;99.90
3727;DHT22;1879;45.876;12.300;2023-08-30T02:32:24;19.50;99.90
3727;DHT22;1879;45.876;12.300;2023-08-30T02:34:53;19.50;99.90
3727;DHT22;1879;45.876;12.300;2023-08-30T02:37:20;19.40;99.90
3727;DHT22;1879;45.876;12.300;2023-08-30T02:39:47;19.30;99.90
3727;DHT22;1879;45.876;12.300;2023-08-30T02:42:14;19.30;99.90
3727;DHT22;1879;45.876;12.300;2023-08-30T02:44:42;19.40;99.90
3727;DHT22;1879;45.876;12.300;2023-08-30T02:47:09;19.40;99.90
3727;DHT22;1879;45.876;12.300;2023-08-30T02:49:36;19.30;99.90
3727;DHT22;1879;45.876;12.300;2023-08-30T02:52:05;19.30;99.90
3727;DHT22;1879;45.876;12.300;2023-08-30T02:54:32;19.20;99.90
3727;DHT22;1879;45.876;12.300;2023-08-30T02:56:59;19.30;99.90
3727;DHT22;1879;45.876;12.300;2023-08-30T02:59:26;19.30;99.90
3727;DHT22;1879;45.876;12.300;2023-08-30T03:01:53;19.30;99.90
3727;DHT22;1879;45.876;12.300;2023-08-30T03:04:20;19.30;99.90
3727;DHT22;1879;45.876;12.300;2023-08-30T03:06:47;19.30;99.90
3727;DHT22;1879;45.876;12.300;2023-08-30T03:09:15;19.30;99.90
3727;DHT22;1879;45.876;12.300;2023-08-30T03:11:42;19.30;99.90
3727;DHT22;1879;45.876;12.300;2023-08-30T03:14:09;19.40;99.90
3727;DHT22;1879;45.876;12.300;2023-08-30T03:16:39;19.30;99.90
3727;DHT22;1879;45.876;12.300;2023-08-30T03:19:06;19.30;99.90
3727;DHT22;1879;45.876;12.300;2023-08-30T03:21:33;19.30;99.90
3727;DHT22;1879;45.876;12.300;2023-08-30T03:24:00;19.30;99.90
3727;DHT22;1879;45.876;12.300;2023-08-30T03:26:29;19.40;99.90
3727;DHT22;1879;45.876;12.300;2023-08-30T03:28:56;19.30;99.90
3727;DHT22;1879;45.876;12.300;2023-08-30T03:31:23;19.30;99.90
3727;DHT22;1879;45.876;12.300;2023-08-30T03:33:50;19.30;99.90
3727;DHT22;1879;45.876;12.300;2023-08-30T03:36:17;19.30;99.90
3727;DHT22;1879;45.876;12.300;2023-08-30T03:38:45;19.30;99.90
3727;DHT22;1879;45.876;12.300;2023-08-30T03:41:12;19.20;99.90
3727;DHT22;1879;45.876;12.300;2023-08-30T03:43:41;19.30;99.90
3727;DHT22;1879;45.876;12.300;2023-08-30T03:46:08;19.30;99.90
3727;DHT22;1879;45.876;12.300;2023-08-30T03:48:37;19.30;99.90
3727;DHT22;1879;45.876;12.300;2023-08-30T03:51:04;19.20;99.90
3727;DHT22;1879;45.876;12.300;2023-08-30T03:53:31;19.20;99.90
3727;DHT22;1879;45.876;12.300;2023-08-30T03:55:58;19.20;99.90
3727;DHT22;1879;45.876;12.300;2023-08-30T03:58:25;19.30;99.90
3727;DHT22;1879;45.876;12.300;2023-08-30T04:00:53;19.30;99.90
3727;DHT22;1879;45.876;12.300;2023-08-30T04:03:20;19.20;99.90
3727;DHT22;1879;45.876;12.300;2023-08-30T04:05:47;19.20;99.90
3727;DHT22;1879;45.876;12.300;2023-08-30T04:08:14;19.10;99.90
3727;DHT22;1879;45.876;12.300;2023-08-30T04:10:42;19.10;99.90
3727;DHT22;1879;45.876;12.300;2023-08-30T04:13:13;19.10;99.90
3727;DHT22;1879;45.876;12.300;2023-08-30T04:15:40;19.00;99.90
3727;DHT22;1879;45.876;12.300;2023-08-30T04:18:09;19.00;99.90
3727;DHT22;1879;45.876;12.300;2023-08-30T04:20:42;18.90;99.90
3727;DHT22;1879;45.876;12.300;2023-08-30T04:23:11;18.90;99.90
3727;DHT22;1879;45.876;12.300;2023-08-30T04:25:38;18.90;99.90
3727;DHT22;1879;45.876;12.300;2023-08-30T04:28:05;18.90;99.90
3727;DHT22;1879;45.876;12.300;2023-08-30T04:30:35;18.80;99.90
3727;DHT22;1879;45.876;12.300;2023-08-30T04:33:02;18.70;99.90
3727;DHT22;1879;45.876;12.300;2023-08-30T04:35:30;18.60;99.90
3727;DHT22;1879;45.876;12.300;2023-08-30T04:37:58;18.60;99.90
3727;DHT22;1879;45.876;12.300;2023-08-30T04:40:25;18.60;99.90
3727;DHT22;1879;45.876;12.300;2023-08-30T04:42:52;18.70;99.90
3727;DHT22;1879;45.876;12.300;2023-08-30T04:45:19;18.80;99.90
3727;DHT22;1879;45.876;12.300;2023-08-30T04:47:46;18.80;99.90
3727;DHT22;1879;45.876;12.300;2023-08-30T04:50:13;18.80;99.90
3727;DHT22;1879;45.876;12.300;2023-08-30T04:52:42;18.80;99.90
3727;DHT22;1879;45.876;12.300;2023-08-30T04:55:09;18.70;99.90
3727;DHT22;1879;45.876;12.300;2023-08-30T04:57:36;18.70;99.90
3727;DHT22;1879;45.876;12.300;2023-08-30T05:00:05;18.80;99.90
3727;DHT22;1879;45.876;12.300;2023-08-30T05:02:32;18.80;99.90
3727;DHT22;1879;45.876;12.300;2023-08-30T05:04:59;18.80;99.90
3727;DHT22;1879;45.876;12.300;2023-08-30T05:07:26;18.80;99.90
3727;DHT22;1879;45.876;12.300;2023-08-30T05:09:55;18.80;99.90
3727;DHT22;1879;45.876;12.300;2023-08-30T05:12:23;18.80;99.90
3727;DHT22;1879;45.876;12.300;2023-08-30T05:14:50;18.80;99.90
3727;DHT22;1879;45.876;12.300;2023-08-30T05:17:17;18.70;99.90
3727;DHT22;1879;45.876;12.300;2023-08-30T05:19:44;18.80;99.90
3727;DHT22;1879;45.876;12.300;2023-08-30T05:22:11;18.80;99.90
3727;DHT22;1879;45.876;12.300;2023-08-30T05:24:38;18.80;99.90
3727;DHT22;1879;45.876;12.300;2023-08-30T05:27:07;18.90;99.90
3727;DHT22;1879;45.876;12.300;2023-08-30T05:29:34;18.80;99.90
3727;DHT22;1879;45.876;12.300;2023-08-30T05:32:01;18.80;99.90
3727;DHT22;1879;45.876;12.300;2023-08-30T05:34:28;18.90;99.90
3727;DHT22;1879;45.876;12.300;2023-08-30T05:36:55;18.90;99.90
3727;DHT22;1879;45.876;12.300;2023-08-30T05:39:22;19.00;99.90
3727;DHT22;1879;45.876;12.300;2023-08-30T05:41:49;18.90;99.90
3727;DHT22;1879;45.876;12.300;2023-08-30T05:44:20;19.00;99.90
3727;DHT22;1879;45.876;12.300;2023-08-30T05:46:47;19.00;99.90
3727;DHT22;1879;45.876;12.300;2023-08-30T05:49:14;19.10;99.90
3727;DHT22;1879;45.876;12.300;2023-08-30T05:51:41;19.00;99.90
3727;DHT22;1879;45.876;12.300;2023-08-30T05:54:08;19.10;99.90
3727;DHT22;1879;45.876;12.300;2023-08-30T05:56:35;19.10;99.90
3727;DHT22;1879;45.876;12.300;2023-08-30T05:59:02;19.10;99.90
3727;DHT22;1879;45.876;12.300;2023-08-30T06:01:30;19.10;99.90
3727;DHT22;1879;45.876;12.300;2023-08-30T06:03:57;19.10;99.90
3727;DHT22;1879;45.876;12.300;2023-08-30T06:06:24;19.10;99.90
3727;DHT22;1879;45.876;12.300;2023-08-30T06:08:53;19.20;99.90
3727;DHT22;1879;45.876;12.300;2023-08-30T06:11:20;19.20;99.90
3727;DHT22;1879;45.876;12.300;2023-08-30T06:13:47;19.20;99.90
3727;DHT22;1879;45.876;12.300;2023-08-30T06:16:14;19.20;99.90
3727;DHT22;1879;45.876;12.300;2023-08-30T06:18:43;19.20;99.90
3727;DHT22;1879;45.876;12.300;2023-08-30T06:21:10;19.20;99.90
3727;DHT22;1879;45.876;12.300;2023-08-30T06:23:38;19.20;99.90
3727;DHT22;1879;45.876;12.300;2023-08-30T06:26:05;19.20;99.90
3727;DHT22;1879;45.876;12.300;2023-08-30T06:28:32;19.20;99.90
3727;DHT22;1879;45.876;12.300;2023-08-30T06:30:59;19.00;99.90
3727;DHT22;1879;45.876;12.300;2023-08-30T06:33:26;19.00;99.90
3727;DHT22;1879;45.876;12.300;2023-08-30T06:35:54;18.90;99.90
3727;DHT22;1879;45.876;12.300;2023-08-30T06:38:22;18.90;99.90
3727;DHT22;1879;45.876;12.300;2023-08-30T06:40:49;18.90;99.90
3727;DHT22;1879;45.876;12.300;2023-08-30T06:43:16;19.10;99.90
3727;DHT22;1879;45.876;12.300;2023-08-30T06:45:44;19.00;99.90
3727;DHT22;1879;45.876;12.300;2023-08-30T06:48:12;18.90;99.90
3727;DHT22;1879;45.876;12.300;2023-08-30T06:50:39;19.00;99.90
3727;DHT22;1879;45.876;12.300;2023-08-30T06:53:07;18.90;99.90
3727;DHT22;1879;45.876;12.300;2023-08-30T06:55:34;18.90;99.90
3727;DHT22;1879;45.876;12.300;2023-08-30T06:58:03;18.90;99.90
3727;DHT22;1879;45.876;12.300;2023-08-30T07:00:30;18.90;99.90
3727;DHT22;1879;45.876;12.300;2023-08-30T07:02:57;18.90;99.90
3727;DHT22;1879;45.876;12.300;2023-08-30T07:05:24;18.90;99.90
3727;DHT22;1879;45.876;12.300;2023-08-30T07:07:51;19.00;99.90
3727;DHT22;1879;45.876;12.300;2023-08-30T07:10:20;18.80;99.90
3727;DHT22;1879;45.876;12.300;2023-08-30T07:12:47;18.70;99.90
3727;DHT22;1879;45.876;12.300;2023-08-30T07:15:15;18.60;99.90
3727;DHT22;1879;45.876;12.300;2023-08-30T07:17:43;18.70;99.90
3727;DHT22;1879;45.876;12.300;2023-08-30T07:20:10;18.70;99.90
3727;DHT22;1879;45.876;12.300;2023-08-30T07:22:37;18.70;99.90
3727;DHT22;1879;45.876;12.300;2023-08-30T07:25:05;18.60;99.90
3727;DHT22;1879;45.876;12.300;2023-08-30T07:27:35;18.60;99.90
3727;DHT22;1879;45.876;12.300;2023-08-30T07:30:03;18.50;99.90
3727;DHT22;1879;45.876;12.300;2023-08-30T07:32:30;18.40;99.90
3727;DHT22;1879;45.876;12.300;2023-08-30T07:34:57;18.40;99.90
3727;DHT22;1879;45.876;12.300;2023-08-30T07:37:25;18.60;99.90
3727;DHT22;1879;45.876;12.300;2023-08-30T07:39:52;18.50;99.90
3727;DHT22;1879;45.876;12.300;2023-08-30T07:42:20;18.60;99.90
3727;DHT22;1879;45.876;12.300;2023-08-30T07:44:48;18.70;99.90
3727;DHT22;1879;45.876;12.300;2023-08-30T07:47:16;18.90;99.90
3727;DHT22;1879;45.876;12.300;2023-08-30T07:49:46;18.90;99.90
3727;DHT22;1879;45.876;12.300;2023-08-30T07:52:14;19.00;99.90
3727;DHT22;1879;45.876;12.300;2023-08-30T07:54:41;19.10;99.90
3727;DHT22;1879;45.876;12.300;2023-08-30T07:57:08;19.10;99.90
3727;DHT22;1879;45.876;12.300;2023-08-30T07:59:36;19.40;99.90
3727;DHT22;1879;45.876;12.300;2023-08-30T08:02:05;19.70;99.90
3727;DHT22;1879;45.876;12.300;2023-08-30T08:04:33;19.90;99.90
3727;DHT22;1879;45.876;12.300;2023-08-30T08:07:00;19.80;99.90
3727;DHT22;1879;45.876;12.300;2023-08-30T08:09:27;19.70;99.90
3727;DHT22;1879;45.876;12.300;2023-08-30T08:11:55;19.50;99.90
3727;DHT22;1879;45.876;12.300;2023-08-30T08:14:22;19.60;99.90
3727;DHT22;1879;45.876;12.300;2023-08-30T08:16:49;19.50;99.90
3727;DHT22;1879;45.876;12.300;2023-08-30T08:19:17;19.60;99.90
3727;DHT22;1879;45.876;12.300;2023-08-30T08:21:45;19.50;99.90
3727;DHT22;1879;45.876;12.300;2023-08-30T08:24:13;19.50;99.90
3727;DHT22;1879;45.876;12.300;2023-08-30T08:26:40;19.50;99.90
3727;DHT22;1879;45.876;12.300;2023-08-30T08:29:07;19.60;99.90
3727;DHT22;1879;45.876;12.300;2023-08-30T08:31:34;19.70;99.90
3727;DHT22;1879;45.876;12.300;2023-08-30T08:34:08;19.80;99.90
3727;DHT22;1879;45.876;12.300;2023-08-30T08:36:37;20.00;99.90
3727;DHT22;1879;45.876;12.300;2023-08-30T08:39:05;20.10;99.90
3727;DHT22;1879;45.876;12.300;2023-08-30T08:41:37;20.10;99.90
3727;DHT22;1879;45.876;12.300;2023-08-30T08:44:05;20.20;99.90
3727;DHT22;1879;45.876;12.300;2023-08-30T08:46:34;20.30;99.90
3727;DHT22;1879;45.876;12.300;2023-08-30T08:49:05;20.40;99.90
3727;DHT22;1879;45.876;12.300;2023-08-30T08:51:37;20.40;99.90
3727;DHT22;1879;45.876;12.300;2023-08-30T08:54:04;20.60;99.90
3727;DHT22;1879;45.876;12.300;2023-08-30T08:56:32;20.60;99.90
3727;DHT22;1879;45.876;12.300;2023-08-30T08:58:59;20.80;99.90
3727;DHT22;1879;45.876;12.300;2023-08-30T09:01:27;20.80;99.90
3727;DHT22;1879;45.876;12.300;2023-08-30T09:03:54;20.90;99.90
3727;DHT22;1879;45.876;12.300;2023-08-30T09:06:21;21.00;99.90
3727;DHT22;1879;45.876;12.300;2023-08-30T09:08:50;21.10;99.90
3727;DHT22;1879;45.876;12.300;2023-08-30T09:11:17;21.20;99.90
3727;DHT22;1879;45.876;12.300;2023-08-30T09:13:44;21.30;99.90
3727;DHT22;1879;45.876;12.300;2023-08-30T09:16:12;21.40;99.90
3727;DHT22;1879;45.876;12.300;2023-08-30T09:18:39;21.40;99.90
3727;DHT22;1879;45.876;12.300;2023-08-30T09:21:06;21.40;99.90
3727;DHT22;1879;45.876;12.300;2023-08-30T09:23:33;21.50;99.90
3727;DHT22;1879;45.876;12.300;2023-08-30T09:26:03;21.60;99.90
3727;DHT22;1879;45.876;12.300;2023-08-30T09:28:30;21.60;99.90
3727;DHT22;1879;45.876;12.300;2023-08-30T09:30:58;21.70;99.90
3727;DHT22;1879;45.876;12.300;2023-08-30T09:33:30;21.70;99.90
3727;DHT22;1879;45.876;12.300;2023-08-30T09:35:58;21.70;99.90
3727;DHT22;1879;45.876;12.300;2023-08-30T09:38:26;21.70;99.90
3727;DHT22;1879;45.876;12.300;2023-08-30T09:41:04;21.80;99.90
3727;DHT22;1879;45.876;12.300;2023-08-30T09:43:32;21.80;99.90
3727;DHT22;1879;45.876;12.300;2023-08-30T09:46:03;21.80;99.90
3727;DHT22;1879;45.876;12.300;2023-08-30T09:48:30;21.90;99.90
3727;DHT22;1879;45.876;12.300;2023-08-30T09:50:58;22.00;99.90
3727;DHT22;1879;45.876;12.300;2023-08-30T09:53:26;22.00;99.90
3727;DHT22;1879;45.876;12.300;2023-08-30T09:55:54;22.00;99.90
3727;DHT22;1879;45.876;12.300;2023-08-30T09:58:23;22.00;99.90
3727;DHT22;1879;45.876;12.300;2023-08-30T10:00:53;22.00;99.90
3727;DHT22;1879;45.876;12.300;2023-08-30T10:03:21;22.10;99.90
3727;DHT22;1879;45.876;12.300;2023-08-30T10:05:49;22.30;99.90
3727;DHT22;1879;45.876;12.300;2023-08-30T10:08:16;22.50;99.90
3727;DHT22;1879;45.876;12.300;2023-08-30T10:10:44;22.60;99.90
3727;DHT22;1879;45.876;12.300;2023-08-30T10:13:11;22.60;99.90
3727;DHT22;1879;45.876;12.300;2023-08-30T10:15:43;22.60;99.90
3727;DHT22;1879;45.876;12.300;2023-08-30T10:18:15;22.60;99.90
3727;DHT22;1879;45.876;12.300;2023-08-30T10:20:46;22.60;99.90
3727;DHT22;1879;45.876;12.300;2023-08-30T10:23:14;22.70;99.90
3727;DHT22;1879;45.876;12.300;2023-08-30T10:25:43;22.80;99.90
3727;DHT22;1879;45.876;12.300;2023-08-30T10:28:11;22.90;99.90
3727;DHT22;1879;45.876;12.300;2023-08-30T10:30:39;23.00;99.90
3727;DHT22;1879;45.876;12.300;2023-08-30T10:33:12;23.10;99.90
3727;DHT22;1879;45.876;12.300;2023-08-30T10:35:47;23.20;99.90
3727;DHT22;1879;45.876;12.300;2023-08-30T10:38:24;23.30;99.90
3727;DHT22;1879;45.876;12.300;2023-08-30T10:40:52;23.30;99.90
3727;DHT22;1879;45.876;12.300;2023-08-30T10:43:28;23.30;99.90
3727;DHT22;1879;45.876;12.300;2023-08-30T10:46:01;23.40;99.90
3727;DHT22;1879;45.876;12.300;2023-08-30T10:48:35;23.40;99.90
3727;DHT22;1879;45.876;12.300;2023-08-30T10:51:03;23.60;99.90
3727;DHT22;1879;45.876;12.300;2023-08-30T10:53:31;23.60;99.90
3727;DHT22;1879;45.876;12.300;2023-08-30T10:56:10;23.60;99.90
3727;DHT22;1879;45.876;12.300;2023-08-30T10:58:43;23.60;99.90
3727;DHT22;1879;45.876;12.300;2023-08-30T11:01:13;23.60;99.90
3727;DHT22;1879;45.876;12.300;2023-08-30T11:03:42;23.50;99.90
3727;DHT22;1879;45.876;12.300;2023-08-30T11:06:13;23.40;99.90
3727;DHT22;1879;45.876;12.300;2023-08-30T11:08:42;23.20;99.90
3727;DHT22;1879;45.876;12.300;2023-08-30T11:11:10;23.10;99.90
3727;DHT22;1879;45.876;12.300;2023-08-30T11:13:40;23.10;99.90
3727;DHT22;1879;45.876;12.300;2023-08-30T11:16:07;23.20;99.90
3727;DHT22;1879;45.876;12.300;2023-08-30T11:18:38;23.30;99.90
3727;DHT22;1879;45.876;12.300;2023-08-30T11:21:07;23.30;99.90
3727;DHT22;1879;45.876;12.300;2023-08-30T11:23:34;23.40;99.90
3727;DHT22;1879;45.876;12.300;2023-08-30T11:26:01;23.40;99.90
3727;DHT22;1879;45.876;12.300;2023-08-30T11:28:30;23.30;99.90
3727;DHT22;1879;45.876;12.300;2023-08-30T11:30:57;23.40;99.90
3727;DHT22;1879;45.876;12.300;2023-08-30T11:33:24;23.40;99.90
3727;DHT22;1879;45.876;12.300;2023-08-30T11:35:53;23.30;99.90
3727;DHT22;1879;45.876;12.300;2023-08-30T11:38:20;23.40;99.90
3727;DHT22;1879;45.876;12.300;2023-08-30T11:40:49;23.50;99.90
3727;DHT22;1879;45.876;12.300;2023-08-30T11:43:17;23.40;99.90
3727;DHT22;1879;45.876;12.300;2023-08-30T11:45:45;23.40;99.90
3727;DHT22;1879;45.876;12.300;2023-08-30T11:48:12;23.50;99.90
3727;DHT22;1879;45.876;12.300;2023-08-30T11:50:40;23.50;99.90
3727;DHT22;1879;45.876;12.300;2023-08-30T11:53:09;23.50;99.90
3727;DHT22;1879;45.876;12.300;2023-08-30T11:55:37;23.40;99.90
3727;DHT22;1879;45.876;12.300;2023-08-30T11:58:04;23.40;99.90
3727;DHT22;1879;45.876;12.300;2023-08-30T12:00:33;23.40;99.90
3727;DHT22;1879;45.876;12.300;2023-08-30T12:03:01;23.40;99.90
3727;DHT22;1879;45.876;12.300;2023-08-30T12:05:28;23.40;99.90
3727;DHT22;1879;45.876;12.300;2023-08-30T12:07:59;23.40;99.90
3727;DHT22;1879;45.876;12.300;2023-08-30T12:10:29;23.40;99.90
3727;DHT22;1879;45.876;12.300;2023-08-30T12:12:57;23.50;99.90
3727;DHT22;1879;45.876;12.300;2023-08-30T12:15:24;23.60;99.90
3727;DHT22;1879;45.876;12.300;2023-08-30T12:17:54;23.60;99.90
3727;DHT22;1879;45.876;12.300;2023-08-30T12:20:21;23.70;99.90
3727;DHT22;1879;45.876;12.300;2023-08-30T12:22:49;23.70;99.90
3727;DHT22;1879;45.876;12.300;2023-08-30T12:25:20;23.70;99.90
3727;DHT22;1879;45.876;12.300;2023-08-30T12:27:50;23.60;99.90
3727;DHT22;1879;45.876;12.300;2023-08-30T12:30:17;23.80;99.90
3727;DHT22;1879;45.876;12.300;2023-08-30T12:32:44;24.10;99.90
3727;DHT22;1879;45.876;12.300;2023-08-30T12:35:11;24.50;99.90
3727;DHT22;1879;45.876;12.300;2023-08-30T12:37:40;25.00;99.90
3727;DHT22;1879;45.876;12.300;2023-08-30T12:40:08;25.50;99.90
3727;DHT22;1879;45.876;12.300;2023-08-30T12:42:35;26.10;99.60
3727;DHT22;1879;45.876;12.300;2023-08-30T12:45:04;26.70;97.20
3727;DHT22;1879;45.876;12.300;2023-08-30T12:47:33;27.50;97.20
3727;DHT22;1879;45.876;12.300;2023-08-30T12:50:00;28.30;96.40
3727;DHT22;1879;45.876;12.300;2023-08-30T12:52:27;28.90;95.40
3727;DHT22;1879;45.876;12.300;2023-08-30T12:54:54;28.70;90.70
3727;DHT22;1879;45.876;12.300;2023-08-30T12:57:21;28.60;90.30
3727;DHT22;1879;45.876;12.300;2023-08-30T12:59:48;29.00;91.70
3727;DHT22;1879;45.876;12.300;2023-08-30T13:02:16;30.30;90.80
3727;DHT22;1879;45.876;12.300;2023-08-30T13:04:43;31.30;88.20
3727;DHT22;1879;45.876;12.300;2023-08-30T13:07:10;31.80;85.00
3727;DHT22;1879;45.876;12.300;2023-08-30T13:09:37;32.10;83.70
3727;DHT22;1879;45.876;12.300;2023-08-30T13:12:05;31.00;76.60
3727;DHT22;1879;45.876;12.300;2023-08-30T13:14:32;30.40;80.90
3727;DHT22;1879;45.876;12.300;2023-08-30T13:16:59;29.80;79.80
3727;DHT22;1879;45.876;12.300;2023-08-30T13:19:27;29.70;79.90
3727;DHT22;1879;45.876;12.300;2023-08-30T13:21:54;29.80;82.30
3727;DHT22;1879;45.876;12.300;2023-08-30T13:24:22;29.60;82.40
3727;DHT22;1879;45.876;12.300;2023-08-30T13:26:49;29.20;82.00
3727;DHT22;1879;45.876;12.300;2023-08-30T13:29:16;28.90;84.10
3727;DHT22;1879;45.876;12.300;2023-08-30T13:31:43;28.70;86.80
3727;DHT22;1879;45.876;12.300;2023-08-30T13:34:10;28.50;86.50
3727;DHT22;1879;45.876;12.300;2023-08-30T13:36:39;28.10;87.30
3727;DHT22;1879;45.876;12.300;2023-08-30T13:39:06;27.80;88.40
3727;DHT22;1879;45.876;12.300;2023-08-30T13:41:33;27.60;89.40
3727;DHT22;1879;45.876;12.300;2023-08-30T13:44:01;27.40;90.60
3727;DHT22;1879;45.876;12.300;2023-08-30T13:46:29;27.10;91.20
3727;DHT22;1879;45.876;12.300;2023-08-30T13:48:59;26.90;91.50
3727;DHT22;1879;45.876;12.300;2023-08-30T13:51:27;26.70;92.30
3727;DHT22;1879;45.876;12.300;2023-08-30T13:53:55;26.40;92.70
3727;DHT22;1879;45.876;12.300;2023-08-30T13:56:23;26.10;93.40
3727;DHT22;1879;45.876;12.300;2023-08-30T13:58:50;25.90;93.80
3727;DHT22;1879;45.876;12.300;2023-08-30T14:01:17;25.80;94.20
3727;DHT22;1879;45.876;12.300;2023-08-30T14:03:44;25.70;94.50
3727;DHT22;1879;45.876;12.300;2023-08-30T14:06:11;25.70;94.70
3727;DHT22;1879;45.876;12.300;2023-08-30T14:08:38;25.70;94.90
3727;DHT22;1879;45.876;12.300;2023-08-30T14:11:07;25.60;94.90
3727;DHT22;1879;45.876;12.300;2023-08-30T14:13:34;25.60;95.00
3727;DHT22;1879;45.876;12.300;2023-08-30T14:16:01;25.50;95.00
3727;DHT22;1879;45.876;12.300;2023-08-30T14:18:29;25.50;94.90
3727;DHT22;1879;45.876;12.300;2023-08-30T14:20:56;25.60;94.90
3727;DHT22;1879;45.876;12.300;2023-08-30T14:23:24;25.70;94.90
3727;DHT22;1879;45.876;12.300;2023-08-30T14:25:56;25.80;95.10
3727;DHT22;1879;45.876;12.300;2023-08-30T14:28:25;26.00;95.00
3727;DHT22;1879;45.876;12.300;2023-08-30T14:30:52;25.90;94.10
3727;DHT22;1879;45.876;12.300;2023-08-30T14:33:19;25.90;94.30
3727;DHT22;1879;45.876;12.300;2023-08-30T14:35:46;25.90;94.60
3727;DHT22;1879;45.876;12.300;2023-08-30T14:38:13;25.90;94.20
3727;DHT22;1879;45.876;12.300;2023-08-30T14:40:41;25.80;94.00
3727;DHT22;1879;45.876;12.300;2023-08-30T14:43:08;25.80;94.10
3727;DHT22;1879;45.876;12.300;2023-08-30T14:45:36;25.80;94.70
3727;DHT22;1879;45.876;12.300;2023-08-30T14:48:04;25.90;94.60
3727;DHT22;1879;45.876;12.300;2023-08-30T14:50:31;26.10;94.40
3727;DHT22;1879;45.876;12.300;2023-08-30T14:52:58;26.40;93.60
3727;DHT22;1879;45.876;12.300;2023-08-30T14:55:25;26.90;93.50
3727;DHT22;1879;45.876;12.300;2023-08-30T14:57:52;27.20;93.10
3727;DHT22;1879;45.876;12.300;2023-08-30T15:00:19;27.30;92.70
3727;DHT22;1879;45.876;12.300;2023-08-30T15:02:48;27.20;92.10
3727;DHT22;1879;45.876;12.300;2023-08-30T15:05:15;27.00;92.10
3727;DHT22;1879;45.876;12.300;2023-08-30T15:07:42;26.90;93.00
3727;DHT22;1879;45.876;12.300;2023-08-30T15:10:09;26.70;93.30
3727;DHT22;1879;45.876;12.300;2023-08-30T15:12:37;26.80;93.00
3727;DHT22;1879;45.876;12.300;2023-08-30T15:15:05;26.80;93.10
3727;DHT22;1879;45.876;12.300;2023-08-30T15:17:32;26.90;93.50
3727;DHT22;1879;45.876;12.300;2023-08-30T15:20:01;26.80;93.00
3727;DHT22;1879;45.876;12.300;2023-08-30T15:22:29;26.90;92.70
3727;DHT22;1879;45.876;12.300;2023-08-30T15:24:57;27.10;92.20
3727;DHT22;1879;45.876;12.300;2023-08-30T15:27:24;27.20;92.50
3727;DHT22;1879;45.876;12.300;2023-08-30T15:29:51;27.90;92.00
3727;DHT22;1879;45.876;12.300;2023-08-30T15:32:20;28.70;90.80
3727;DHT22;1879;45.876;12.300;2023-08-30T15:34:48;29.70;91.60
3727;DHT22;1879;45.876;12.300;2023-08-30T15:37:16;31.20;84.80
3727;DHT22;1879;45.876;12.300;2023-08-30T15:39:43;32.20;78.50
3727;DHT22;1879;45.876;12.300;2023-08-30T15:42:11;32.60;75.20
3727;DHT22;1879;45.876;12.300;2023-08-30T15:44:38;33.50;75.30
3727;DHT22;1879;45.876;12.300;2023-08-30T15:47:05;34.30;73.80
3727;DHT22;1879;45.876;12.300;2023-08-30T15:49:32;34.80;70.80